sensor_id;sensor_type;location;lat;lon;timestamp;pressure;altitude;pressure_sealevel;temperature;humidity
48964;BME280;34776;48.180;16.420;2023-02-01T00:00:31;99869.19;;;4.60;68.53
48964;BME280;34776;48.180;16.420;2023-02-01T00:02:58;99867.31;;;4.64;68.61
48964;BME280;34776;48.180;16.420;2023-02-01T00:05:23;99887.44;;;4.66;68.52
48964;BME280;34776;48.180;16.420;2023-02-01T00:07:49;99874.28;;;4.66;68.59
48964;BME280;34776;48.180;16.420;2023-02-01T00:10:14;99871.66;;;4.66;68.60
48964;BME280;34776;48.180;16.420;2023-02-01T00:12:39;99865.47;;;4.67;68.50
48964;BME280;34776;48.180;16.420;2023-02-01T00:15:05;99884.81;;;4.66;68.60
48964;BME280;34776;48.180;16.420;2023-02-01T00:17:31;99876.09;;;4.64;68.61
48964;BME280;34776;48.180;16.420;2023-02-01T00:19:56;99855.03;;;4.64;68.80
48964;BME280;34776;48.180;16.420;2023-02-01T00:22:21;99845.41;;;4.63;68.86
48964;BME280;34776;48.180;16.420;2023-02-01T00:24:47;99874.28;;;4.66;68.65
48964;BME280;34776;48.180;16.420;2023-02-01T00:27:13;99855.81;;;4.68;68.86
48964;BME280;34776;48.180;16.420;2023-02-01T00:29:43;99856.69;;;4.68;68.58
48964;BME280;34776;48.180;16.420;2023-02-01T00:32:09;99853.25;;;4.66;68.57
48964;BME280;34776;48.180;16.420;2023-02-01T00:34:34;99858.41;;;4.70;68.39
48964;BME280;34776;48.180;16.420;2023-02-01T00:36:59;99855.75;;;4.71;68.04
48964;BME280;34776;48.180;16.420;2023-02-01T00:39:25;99867.97;;;4.72;68.37
48964;BME280;34776;48.180;16.420;2023-02-01T00:41:50;99875.84;;;4.74;68.24
48964;BME280;34776;48.180;16.420;2023-02-01T00:44:16;99872.31;;;4.75;68.20
48964;BME280;34776;48.180;16.420;2023-02-01T00:46:41;99876.59;;;4.79;67.90
48964;BME280;34776;48.180;16.420;2023-02-01T00:49:07;99870.31;;;4.83;68.02
48964;BME280;34776;48.180;16.420;2023-02-01T00:51:34;99877.22;;;4.87;67.75
48964;BME280;34776;48.180;16.420;2023-02-01T00:53:59;99880.75;;;4.87;67.81
48964;BME280;34776;48.180;16.420;2023-02-01T00:56:25;99872.91;;;4.84;67.91
48964;BME280;34776;48.180;16.420;2023-02-01T00:58:52;99883.50;;;4.83;67.74
48964;BME280;34776;48.180;16.420;2023-02-01T01:01:23;99900.19;;;4.82;67.76
48964;BME280;34776;48.180;16.420;2023-02-01T01:03:52;99901.88;;;4.84;67.90
48964;BME280;34776;48.180;16.420;2023-02-01T01:06:27;99885.22;;;4.84;67.91
48964;BME280;34776;48.180;16.420;2023-02-01T01:08:54;99902.75;;;4.85;67.92
48964;BME280;34776;48.180;16.420;2023-02-01T01:11:23;99900.09;;;4.85;67.96
48964;BME280;34776;48.180;16.420;2023-02-01T01:13:50;99922.81;;;4.89;67.92
48964;BME280;34776;48.180;16.420;2023-02-01T01:16:17;99919.19;;;4.93;67.78
48964;BME280;34776;48.180;16.420;2023-02-01T01:18:43;99920.91;;;4.96;67.47
48964;BME280;34776;48.180;16.420;2023-02-01T01:21:10;99904.28;;;4.94;67.60
48964;BME280;34776;48.180;16.420;2023-02-01T01:23:37;99918.28;;;4.96;67.24
48964;BME280;34776;48.180;16.420;2023-02-01T01:26:07;99913.88;;;4.96;67.56
48964;BME280;34776;48.180;16.420;2023-02-01T01:28:33;99903.16;;;5.02;67.28
48964;BME280;34776;48.180;16.420;2023-02-01T01:30:58;99911.91;;;5.04;67.19
48964;BME280;34776;48.180;16.420;2023-02-01T01:33:23;99913.59;;;5.05;67.30
48964;BME280;34776;48.180;16.420;2023-02-01T01:35:49;99917.16;;;5.04;67.10
48964;BME280;34776;48.180;16.420;2023-02-01T01:38:14;99918.13;;;5.02;66.88
48964;BME280;34776;48.180;16.420;2023-02-01T01:40:39;99890.03;;;5.01;67.17
48964;BME280;34776;48.180;16.420;2023-02-01T01:43:13;99903.34;;;4.96;67.13
48964;BME280;34776;48.180;16.420;2023-02-01T01:45:40;99896.31;;;4.95;67.36
48964;BME280;34776;48.180;16.420;2023-02-01T01:48:06;99897.25;;;4.94;67.23
48964;BME280;34776;48.180;16.420;2023-02-01T01:50:40;99891.16;;;4.92;67.34
48964;BME280;34776;48.180;16.420;2023-02-01T01:53:08;99892.00;;;4.93;67.48
48964;BME280;34776;48.180;16.420;2023-02-01T01:55:37;99900.84;;;4.92;67.59
48964;BME280;34776;48.180;16.420;2023-02-01T01:58:12;99895.63;;;4.88;67.57
48964;BME280;34776;48.180;16.420;2023-02-01T02:00:39;99894.69;;;4.91;67.58
48964;BME280;34776;48.180;16.420;2023-02-01T02:03:27;99898.22;;;4.90;68.02
48964;BME280;34776;48.180;16.420;2023-02-01T02:05:55;99900.88;;;4.90;67.85
48964;BME280;34776;48.180;16.420;2023-02-01T02:08:24;99907.03;;;4.89;68.00
48964;BME280;34776;48.180;16.420;2023-02-01T02:10:51;99893.81;;;4.91;67.95
48964;BME280;34776;48.180;16.420;2023-02-01T02:13:40;99912.22;;;4.92;68.16
48964;BME280;34776;48.180;16.420;2023-02-01T02:16:20;99908.75;;;4.90;68.19
48964;BME280;34776;48.180;16.420;2023-02-01T02:19:00;99909.56;;;4.94;68.12
48964;BME280;34776;48.180;16.420;2023-02-01T02:35:51;99913.38;;;5.15;67.75
48964;BME280;34776;48.180;16.420;2023-02-01T02:40:47;99911.91;;;5.04;68.27
48964;BME280;34776;48.180;16.420;2023-02-01T02:43:32;99913.72;;;5.02;68.60
48964;BME280;34776;48.180;16.420;2023-02-01T02:46:24;99911.06;;;5.02;68.45
48964;BME280;34776;48.180;16.420;2023-02-01T02:49:44;99922.44;;;5.04;68.42
48964;BME280;34776;48.180;16.420;2023-02-01T02:52:38;99929.34;;;5.08;68.51
48964;BME280;34776;48.180;16.420;2023-02-01T02:55:26;99942.38;;;5.13;68.48
48964;BME280;34776;48.180;16.420;2023-02-01T02:57:53;99941.41;;;5.17;68.65
48964;BME280;34776;48.180;16.420;2023-02-01T03:00:38;99939.44;;;5.24;68.48
48964;BME280;34776;48.180;16.420;2023-02-01T03:03:23;99930.72;;;5.22;68.34
48964;BME280;34776;48.180;16.420;2023-02-01T03:06:15;99940.44;;;5.20;68.59
48964;BME280;34776;48.180;16.420;2023-02-01T03:08:42;99920.28;;;5.19;68.51
48964;BME280;34776;48.180;16.420;2023-02-01T03:11:13;99925.72;;;5.13;68.83
48964;BME280;34776;48.180;16.420;2023-02-01T03:13:45;99939.09;;;5.05;69.12
48964;BME280;34776;48.180;16.420;2023-02-01T03:16:35;99945.22;;;5.05;69.20
48964;BME280;34776;48.180;16.420;2023-02-01T03:19:10;99922.44;;;5.04;69.17
48964;BME280;34776;48.180;16.420;2023-02-01T03:21:43;99931.31;;;5.00;69.48
48964;BME280;34776;48.180;16.420;2023-02-01T03:24:32;99942.81;;;4.98;69.56
48964;BME280;34776;48.180;16.420;2023-02-01T03:27:05;99934.16;;;4.93;69.54
48964;BME280;34776;48.180;16.420;2023-02-01T03:29:44;99944.78;;;4.90;69.78
48964;BME280;34776;48.180;16.420;2023-02-01T03:32:10;99943.06;;;4.87;69.72
48964;BME280;34776;48.180;16.420;2023-02-01T03:34:36;99938.78;;;4.83;69.92
48964;BME280;34776;48.180;16.420;2023-02-01T03:37:04;99946.72;;;4.81;70.14
48964;BME280;34776;48.180;16.420;2023-02-01T03:42:28;99945.69;;;4.87;70.01
48964;BME280;34776;48.180;16.420;2023-02-01T03:45:14;99954.34;;;4.92;69.76
48964;BME280;34776;48.180;16.420;2023-02-01T03:47:47;99950.72;;;4.96;69.67
48964;BME280;34776;48.180;16.420;2023-02-01T03:50:18;99946.28;;;4.98;69.18
48964;BME280;34776;48.180;16.420;2023-02-01T03:55:24;99938.25;;;5.03;69.07
48964;BME280;34776;48.180;16.420;2023-02-01T03:57:53;99927.63;;;5.06;68.88
48964;BME280;34776;48.180;16.420;2023-02-01T04:00:22;99941.63;;;5.08;68.85
48964;BME280;34776;48.180;16.420;2023-02-01T04:02:48;99938.97;;;5.09;68.74
48964;BME280;34776;48.180;16.420;2023-02-01T04:05:14;99953.88;;;5.11;68.91
48964;BME280;34776;48.180;16.420;2023-02-01T04:07:39;99945.06;;;5.12;68.88
48964;BME280;34776;48.180;16.420;2023-02-01T04:10:05;99950.25;;;5.15;68.93
48964;BME280;34776;48.180;16.420;2023-02-01T04:12:31;99951.06;;;5.17;68.77
48964;BME280;34776;48.180;16.420;2023-02-01T04:14:56;99950.19;;;5.16;68.58
48964;BME280;34776;48.180;16.420;2023-02-01T04:17:21;99958.91;;;5.18;68.60
48964;BME280;34776;48.180;16.420;2023-02-01T04:19:47;99955.44;;;5.18;68.63
48964;BME280;34776;48.180;16.420;2023-02-01T04:22:12;99956.28;;;5.18;68.38
48964;BME280;34776;48.180;16.420;2023-02-01T04:24:38;99955.44;;;5.18;68.56
48964;BME280;34776;48.180;16.420;2023-02-01T04:27:03;99946.56;;;5.20;68.35
48964;BME280;34776;48.180;16.420;2023-02-01T04:29:28;99957.91;;;5.24;68.26
48964;BME280;34776;48.180;16.420;2023-02-01T04:31:54;99950.72;;;5.29;68.25
48964;BME280;34776;48.180;16.420;2023-02-01T04:34:19;99947.16;;;5.32;68.11
48964;BME280;34776;48.180;16.420;2023-02-01T04:36:45;99947.91;;;5.35;68.10
48964;BME280;34776;48.180;16.420;2023-02-01T04:39:10;99953.97;;;5.39;68.19
48964;BME280;34776;48.180;16.420;2023-02-01T04:41:36;99945.88;;;5.46;67.87
48964;BME280;34776;48.180;16.420;2023-02-01T04:44:01;99950.97;;;5.53;67.95
48964;BME280;34776;48.180;16.420;2023-02-01T04:46:26;99942.06;;;5.57;67.81
48964;BME280;34776;48.180;16.420;2023-02-01T04:48:52;99932.41;;;5.56;67.85
48964;BME280;34776;48.180;16.420;2023-02-01T04:51:17;99931.53;;;5.57;68.01
48964;BME280;34776;48.180;16.420;2023-02-01T04:53:44;99928.91;;;5.55;67.91
48964;BME280;34776;48.180;16.420;2023-02-01T04:56:09;99914.94;;;5.52;68.18
48964;BME280;34776;48.180;16.420;2023-02-01T04:58:35;99914.13;;;5.49;68.36
48964;BME280;34776;48.180;16.420;2023-02-01T05:01:04;99907.03;;;5.52;68.49
48964;BME280;34776;48.180;16.420;2023-02-01T05:03:32;99914.06;;;5.53;68.52
48964;BME280;34776;48.180;16.420;2023-02-01T05:05:57;99915.78;;;5.54;68.51
48964;BME280;34776;48.180;16.420;2023-02-01T05:08:22;99908.69;;;5.56;68.43
48964;BME280;34776;48.180;16.420;2023-02-01T05:10:50;99912.09;;;5.59;68.52
48964;BME280;34776;48.180;16.420;2023-02-01T05:13:15;99901.53;;;5.61;68.45
48964;BME280;34776;48.180;16.420;2023-02-01T05:15:59;99898.81;;;5.62;68.50
48964;BME280;34776;48.180;16.420;2023-02-01T05:18:24;99906.66;;;5.65;68.63
48964;BME280;34776;48.180;16.420;2023-02-01T05:20:50;99925.84;;;5.69;68.59
48964;BME280;34776;48.180;16.420;2023-02-01T05:23:15;99902.94;;;5.71;68.64
48964;BME280;34776;48.180;16.420;2023-02-01T05:25:40;99920.59;;;5.69;68.87
48964;BME280;34776;48.180;16.420;2023-02-01T05:28:06;99911.09;;;5.63;69.36
48964;BME280;34776;48.180;16.420;2023-02-01T05:30:32;99912.81;;;5.64;69.54
48964;BME280;34776;48.180;16.420;2023-02-01T05:33:00;99920.88;;;5.60;70.13
48964;BME280;34776;48.180;16.420;2023-02-01T05:35:25;99903.41;;;5.56;70.59
48964;BME280;34776;48.180;16.420;2023-02-01T05:37:50;99902.75;;;5.49;71.52
48964;BME280;34776;48.180;16.420;2023-02-01T05:40:16;99899.41;;;5.42;72.21
48964;BME280;34776;48.180;16.420;2023-02-01T05:42:41;99906.69;;;5.34;72.91
48964;BME280;34776;48.180;16.420;2023-02-01T05:45:07;99893.53;;;5.33;73.07
48964;BME280;34776;48.180;16.420;2023-02-01T05:47:33;99891.41;;;5.45;72.85
48964;BME280;34776;48.180;16.420;2023-02-01T05:49:58;99888.63;;;5.50;72.57
48964;BME280;34776;48.180;16.420;2023-02-01T05:52:24;99886.88;;;5.51;72.50
48964;BME280;34776;48.180;16.420;2023-02-01T05:54:49;99889.41;;;5.54;72.31
48964;BME280;34776;48.180;16.420;2023-02-01T05:57:14;99876.03;;;5.61;71.93
48964;BME280;34776;48.180;16.420;2023-02-01T05:59:40;99883.78;;;5.66;71.75
48964;BME280;34776;48.180;16.420;2023-02-01T06:02:07;99872.34;;;5.67;71.37
48964;BME280;34776;48.180;16.420;2023-02-01T06:04:32;99860.91;;;5.66;71.06
48964;BME280;34776;48.180;16.420;2023-02-01T06:06:58;99869.59;;;5.70;71.35
48964;BME280;34776;48.180;16.420;2023-02-01T06:09:23;99865.22;;;5.69;70.79
48964;BME280;34776;48.180;16.420;2023-02-01T06:11:48;99871.31;;;5.71;70.57
48964;BME280;34776;48.180;16.420;2023-02-01T06:14:14;99878.34;;;5.72;70.34
48964;BME280;34776;48.180;16.420;2023-02-01T06:16:39;99865.09;;;5.74;70.48
48964;BME280;34776;48.180;16.420;2023-02-01T06:19:04;99877.41;;;5.73;70.47
48964;BME280;34776;48.180;16.420;2023-02-01T06:21:30;99897.59;;;5.74;70.25
48964;BME280;34776;48.180;16.420;2023-02-01T06:23:55;99877.28;;;5.78;70.20
48964;BME280;34776;48.180;16.420;2023-02-01T06:26:22;99899.06;;;5.84;69.98
48964;BME280;34776;48.180;16.420;2023-02-01T06:28:48;99904.88;;;5.94;69.95
48964;BME280;34776;48.180;16.420;2023-02-01T06:31:13;99911.09;;;5.95;69.44
48964;BME280;34776;48.180;16.420;2023-02-01T06:33:39;99914.53;;;5.97;69.05
48964;BME280;34776;48.180;16.420;2023-02-01T06:36:07;99911.78;;;6.00;69.10
48964;BME280;34776;48.180;16.420;2023-02-01T06:38:33;99916.88;;;6.06;68.85
48964;BME280;34776;48.180;16.420;2023-02-01T06:41:00;99922.88;;;6.11;69.02
48964;BME280;34776;48.180;16.420;2023-02-01T06:43:26;99919.31;;;6.12;68.68
48964;BME280;34776;48.180;16.420;2023-02-01T06:45:52;99930.59;;;6.17;68.49
48964;BME280;34776;48.180;16.420;2023-02-01T06:48:18;99931.22;;;6.25;68.28
48964;BME280;34776;48.180;16.420;2023-02-01T06:50:44;99930.34;;;6.25;67.91
48964;BME280;34776;48.180;16.420;2023-02-01T06:53:10;99932.84;;;6.29;67.95
48964;BME280;34776;48.180;16.420;2023-02-01T06:55:35;99947.75;;;6.32;67.85
48964;BME280;34776;48.180;16.420;2023-02-01T06:58:01;99943.31;;;6.33;67.92
48964;BME280;34776;48.180;16.420;2023-02-01T07:00:28;99942.78;;;6.21;68.41
48964;BME280;34776;48.180;16.420;2023-02-01T07:02:53;99928.53;;;5.99;69.55
48964;BME280;34776;48.180;16.420;2023-02-01T07:05:20;99919.28;;;5.84;70.21
48964;BME280;34776;48.180;16.420;2023-02-01T07:07:45;99913.25;;;5.80;70.54
48964;BME280;34776;48.180;16.420;2023-02-01T07:10:11;99909.59;;;5.84;70.84
48964;BME280;34776;48.180;16.420;2023-02-01T07:12:36;99912.59;;;6.02;70.33
48964;BME280;34776;48.180;16.420;2023-02-01T07:15:02;99916.50;;;6.18;69.97
48964;BME280;34776;48.180;16.420;2023-02-01T07:17:28;99918.56;;;6.37;69.51
48964;BME280;34776;48.180;16.420;2023-02-01T07:19:56;99917.75;;;6.35;69.00
48964;BME280;34776;48.180;16.420;2023-02-01T07:22:23;99925.38;;;6.42;69.01
48964;BME280;34776;48.180;16.420;2023-02-01T07:24:49;99926.97;;;6.48;68.43
48964;BME280;34776;48.180;16.420;2023-02-01T07:27:14;99912.75;;;6.52;68.35
48964;BME280;34776;48.180;16.420;2023-02-01T07:29:39;99927.63;;;6.55;67.94
48964;BME280;34776;48.180;16.420;2023-02-01T07:32:05;99920.44;;;6.60;67.77
48964;BME280;34776;48.180;16.420;2023-02-01T07:34:30;99926.56;;;6.60;67.52
48964;BME280;34776;48.180;16.420;2023-02-01T07:36:56;99924.72;;;6.64;67.45
48964;BME280;34776;48.180;16.420;2023-02-01T07:39:21;99929.91;;;6.65;67.20
48964;BME280;34776;48.180;16.420;2023-02-01T07:41:47;99922.88;;;6.66;67.13
48964;BME280;34776;48.180;16.420;2023-02-01T07:44:12;99933.47;;;6.64;66.75
48964;BME280;34776;48.180;16.420;2023-02-01T07:46:38;99908.94;;;6.61;66.89
48964;BME280;34776;48.180;16.420;2023-02-01T07:49:04;99918.41;;;6.68;66.81
48964;BME280;34776;48.180;16.420;2023-02-01T07:51:29;99924.44;;;6.71;66.61
48964;BME280;34776;48.180;16.420;2023-02-01T07:53:55;99919.06;;;6.75;65.89
48964;BME280;34776;48.180;16.420;2023-02-01T07:56:20;99917.22;;;6.77;65.96
48964;BME280;34776;48.180;16.420;2023-02-01T07:58:51;99918.94;;;6.78;65.69
48964;BME280;34776;48.180;16.420;2023-02-01T08:01:19;99923.31;;;6.79;65.76
48964;BME280;34776;48.180;16.420;2023-02-01T08:03:46;99937.94;;;6.89;65.58
48964;BME280;34776;48.180;16.420;2023-02-01T08:06:11;99944.84;;;6.93;65.50
48964;BME280;34776;48.180;16.420;2023-02-01T08:08:37;99933.41;;;6.93;65.50
48964;BME280;34776;48.180;16.420;2023-02-01T08:11:05;99938.06;;;6.84;65.73
48964;BME280;34776;48.180;16.420;2023-02-01T08:13:30;99926.16;;;6.73;66.59
48964;BME280;34776;48.180;16.420;2023-02-01T08:16:04;99928.59;;;6.52;67.68
48964;BME280;34776;48.180;16.420;2023-02-01T08:18:30;99913.88;;;6.45;68.62
48964;BME280;34776;48.180;16.420;2023-02-01T08:20:56;99883.03;;;6.47;69.03
48964;BME280;34776;48.180;16.420;2023-02-01T08:23:22;99889.50;;;6.63;68.51
48964;BME280;34776;48.180;16.420;2023-02-01T08:25:48;99889.06;;;6.76;67.82
48964;BME280;34776;48.180;16.420;2023-02-01T08:28:13;99876.38;;;6.87;67.15
48964;BME280;34776;48.180;16.420;2023-02-01T08:30:39;99874.34;;;6.95;67.02
48964;BME280;34776;48.180;16.420;2023-02-01T08:33:07;99873.88;;;7.07;66.57
48964;BME280;34776;48.180;16.420;2023-02-01T08:35:37;99874.22;;;7.22;65.47
48964;BME280;34776;48.180;16.420;2023-02-01T08:38:04;99864.81;;;7.38;65.55
48964;BME280;34776;48.180;16.420;2023-02-01T08:40:29;99863.88;;;7.86;64.88
48964;BME280;34776;48.180;16.420;2023-02-01T08:42:55;99855.41;;;8.00;63.17
48964;BME280;34776;48.180;16.420;2023-02-01T08:45:23;99855.63;;;8.16;63.12
48964;BME280;34776;48.180;16.420;2023-02-01T08:47:52;99855.75;;;8.13;62.80
48964;BME280;34776;48.180;16.420;2023-02-01T08:50:19;99854.00;;;8.12;62.71
48964;BME280;34776;48.180;16.420;2023-02-01T08:52:45;99855.56;;;7.96;62.47
48964;BME280;34776;48.180;16.420;2023-02-01T08:55:10;99860.03;;;7.93;62.31
48964;BME280;34776;48.180;16.420;2023-02-01T08:57:36;99855.94;;;7.86;62.45
48964;BME280;34776;48.180;16.420;2023-02-01T09:00:04;99868.34;;;7.84;62.18
48964;BME280;34776;48.180;16.420;2023-02-01T09:02:30;99861.66;;;7.76;62.24
48964;BME280;34776;48.180;16.420;2023-02-01T09:04:56;99863.53;;;7.72;62.02
48964;BME280;34776;48.180;16.420;2023-02-01T09:07:21;99858.47;;;7.66;62.08
48964;BME280;34776;48.180;16.420;2023-02-01T09:09:47;99870.09;;;7.62;62.30
48964;BME280;34776;48.180;16.420;2023-02-01T09:12:12;99880.00;;;7.57;62.03
48964;BME280;34776;48.180;16.420;2023-02-01T09:14:37;99886.19;;;7.56;62.45
48964;BME280;34776;48.180;16.420;2023-02-01T09:17:03;99894.13;;;7.32;62.88
48964;BME280;34776;48.180;16.420;2023-02-01T09:19:30;99892.94;;;7.16;63.55
48964;BME280;34776;48.180;16.420;2023-02-01T09:21:55;99898.16;;;7.19;64.55
48964;BME280;34776;48.180;16.420;2023-02-01T09:24:21;99893.94;;;7.13;65.30
48964;BME280;34776;48.180;16.420;2023-02-01T09:26:46;99894.28;;;7.04;66.62
48964;BME280;34776;48.180;16.420;2023-02-01T09:29:12;99885.13;;;6.89;67.35
48964;BME280;34776;48.180;16.420;2023-02-01T09:31:39;99872.75;;;6.89;67.71
48964;BME280;34776;48.180;16.420;2023-02-01T09:34:05;99872.50;;;6.97;67.93
48964;BME280;34776;48.180;16.420;2023-02-01T09:36:31;99872.84;;;7.11;67.36
48964;BME280;34776;48.180;16.420;2023-02-01T09:38:57;99874.38;;;7.19;67.03
48964;BME280;34776;48.180;16.420;2023-02-01T09:47:12;99859.13;;;6.77;68.31
48964;BME280;34776;48.180;16.420;2023-02-01T09:49:46;99855.50;;;6.54;69.08
48964;BME280;34776;48.180;16.420;2023-02-01T09:52:13;99866.88;;;6.29;70.18
48964;BME280;34776;48.180;16.420;2023-02-01T09:55:04;99833.09;;;6.14;71.55
48964;BME280;34776;48.180;16.420;2023-02-01T10:00:40;99829.81;;;6.06;73.31
48964;BME280;34776;48.180;16.420;2023-02-01T10:03:04;99833.19;;;6.11;74.87
48964;BME280;34776;48.180;16.420;2023-02-01T10:08:45;99831.13;;;6.19;75.63
48964;BME280;34776;48.180;16.420;2023-02-01T10:11:49;99810.81;;;6.23;74.36
48964;BME280;34776;48.180;16.420;2023-02-01T10:17:02;99805.88;;;6.89;75.35
48964;BME280;34776;48.180;16.420;2023-02-01T10:22:45;99792.75;;;7.57;72.34
48964;BME280;34776;48.180;16.420;2023-02-01T10:25:23;99785.84;;;7.75;73.11
48964;BME280;34776;48.180;16.420;2023-02-01T10:27:50;99804.19;;;7.79;73.33
48964;BME280;34776;48.180;16.420;2023-02-01T10:30:21;99791.63;;;7.84;73.25
48964;BME280;34776;48.180;16.420;2023-02-01T10:33:07;99790.50;;;8.12;71.63
48964;BME280;34776;48.180;16.420;2023-02-01T10:35:39;99792.34;;;8.10;72.07
48964;BME280;34776;48.180;16.420;2023-02-01T10:38:13;99790.28;;;7.74;71.52
48964;BME280;34776;48.180;16.420;2023-02-01T10:40:42;99767.34;;;7.97;73.06
48964;BME280;34776;48.180;16.420;2023-02-01T10:43:09;99761.16;;;8.39;73.37
48964;BME280;34776;48.180;16.420;2023-02-01T10:45:34;99777.47;;;8.89;73.50
48964;BME280;34776;48.180;16.420;2023-02-01T10:48:02;99780.88;;;9.12;71.94
48964;BME280;34776;48.180;16.420;2023-02-01T10:53:57;99780.44;;;9.02;70.71
48964;BME280;34776;48.180;16.420;2023-02-01T10:56:27;99784.53;;;9.09;70.16
48964;BME280;34776;48.180;16.420;2023-02-01T10:59:03;99796.09;;;8.88;69.14
48964;BME280;34776;48.180;16.420;2023-02-01T11:01:39;99808.06;;;8.57;68.54
48964;BME280;34776;48.180;16.420;2023-02-01T11:04:09;99816.31;;;8.07;71.43
48964;BME280;34776;48.180;16.420;2023-02-01T11:06:46;99821.47;;;7.66;72.18
48964;BME280;34776;48.180;16.420;2023-02-01T11:09:23;99797.72;;;7.19;73.71
48964;BME280;34776;48.180;16.420;2023-02-01T11:14:20;99805.41;;;7.48;75.67
48964;BME280;34776;48.180;16.420;2023-02-01T11:16:52;99812.41;;;7.93;75.52
48964;BME280;34776;48.180;16.420;2023-02-01T11:19:18;99814.25;;;7.91;73.88
48964;BME280;34776;48.180;16.420;2023-02-01T11:21:44;99826.84;;;7.64;74.21
48964;BME280;34776;48.180;16.420;2023-02-01T11:24:34;99826.09;;;7.14;74.86
48964;BME280;34776;48.180;16.420;2023-02-01T11:27:02;99829.97;;;7.03;77.81
48964;BME280;34776;48.180;16.420;2023-02-01T11:29:37;99827.81;;;6.91;78.41
48964;BME280;34776;48.180;16.420;2023-02-01T11:32:03;99839.94;;;6.71;78.96
48964;BME280;34776;48.180;16.420;2023-02-01T11:34:37;99840.34;;;6.59;80.21
48964;BME280;34776;48.180;16.420;2023-02-01T11:37:03;99842.88;;;6.37;80.77
48964;BME280;34776;48.180;16.420;2023-02-01T11:39:33;99847.09;;;6.16;82.49
48964;BME280;34776;48.180;16.420;2023-02-01T11:49:45;99833.47;;;5.74;86.76
48964;BME280;34776;48.180;16.420;2023-02-01T11:52:48;99825.50;;;5.75;87.24
48964;BME280;34776;48.180;16.420;2023-02-01T12:01:03;99820.56;;;5.64;88.14
48964;BME280;34776;48.180;16.420;2023-02-01T12:15:39;99805.03;;;6.12;90.58
48964;BME280;34776;48.180;16.420;2023-02-01T12:29:00;99808.31;;;6.45;88.93
48964;BME280;34776;48.180;16.420;2023-02-01T12:34:57;99807.38;;;6.46;87.62
48964;BME280;34776;48.180;16.420;2023-02-01T12:37:48;99799.63;;;6.66;88.16
48964;BME280;34776;48.180;16.420;2023-02-01T12:46:08;99782.41;;;7.95;83.96
48964;BME280;34776;48.180;16.420;2023-02-01T12:48:55;99781.81;;;7.88;81.21
48964;BME280;34776;48.180;16.420;2023-02-01T12:51:27;99770.47;;;7.84;82.33
48964;BME280;34776;48.180;16.420;2023-02-01T12:53:59;99764.19;;;8.09;82.11
48964;BME280;34776;48.180;16.420;2023-02-01T12:58:59;99759.31;;;9.20;79.67
48964;BME280;34776;48.180;16.420;2023-02-01T13:01:42;99764.41;;;9.43;78.34
48964;BME280;34776;48.180;16.420;2023-02-01T13:04:12;99762.34;;;9.31;76.54
48964;BME280;34776;48.180;16.420;2023-02-01T13:06:47;99753.69;;;8.88;77.25
48964;BME280;34776;48.180;16.420;2023-02-01T13:11:44;99742.69;;;8.78;77.71
48964;BME280;34776;48.180;16.420;2023-02-01T13:14:32;99751.25;;;8.83;78.23
48964;BME280;34776;48.180;16.420;2023-02-01T13:17:03;99735.56;;;8.79;77.02
48964;BME280;34776;48.180;16.420;2023-02-01T13:22:14;99739.66;;;8.86;73.86
48964;BME280;34776;48.180;16.420;2023-02-01T13:24:48;99722.91;;;8.85;74.45
48964;BME280;34776;48.180;16.420;2023-02-01T13:27:16;99728.78;;;8.92;74.80
48964;BME280;34776;48.180;16.420;2023-02-01T13:29:49;99711.19;;;8.91;73.36
48964;BME280;34776;48.180;16.420;2023-02-01T13:32:46;99708.03;;;8.83;70.47
48964;BME280;34776;48.180;16.420;2023-02-01T13:38:14;99722.09;;;8.44;64.51
48964;BME280;34776;48.180;16.420;2023-02-01T13:41:07;99689.38;;;8.46;73.31
48964;BME280;34776;48.180;16.420;2023-02-01T13:43:38;99708.59;;;8.50;72.24
48964;BME280;34776;48.180;16.420;2023-02-01T13:46:09;99711.41;;;8.47;72.25
48964;BME280;34776;48.180;16.420;2023-02-01T13:51:12;99702.78;;;8.01;71.53
48964;BME280;34776;48.180;16.420;2023-02-01T13:53:45;99707.78;;;7.86;71.42
48964;BME280;34776;48.180;16.420;2023-02-01T13:56:16;99698.78;;;7.90;71.41
48964;BME280;34776;48.180;16.420;2023-02-01T13:58:45;99705.41;;;7.80;70.28
48964;BME280;34776;48.180;16.420;2023-02-01T14:06:42;99712.22;;;7.64;71.10
48964;BME280;34776;48.180;16.420;2023-02-01T14:11:42;99710.81;;;7.55;68.75
48964;BME280;34776;48.180;16.420;2023-02-01T14:21:56;99712.31;;;7.40;70.81
48964;BME280;34776;48.180;16.420;2023-02-01T14:24:34;99715.25;;;7.32;69.96
48964;BME280;34776;48.180;16.420;2023-02-01T14:27:21;99714.63;;;7.26;68.47
48964;BME280;34776;48.180;16.420;2023-02-01T14:29:53;99711.19;;;7.24;69.39
48964;BME280;34776;48.180;16.420;2023-02-01T14:32:39;99701.56;;;7.23;68.96
48964;BME280;34776;48.180;16.420;2023-02-01T14:35:19;99697.53;;;7.13;68.72
48964;BME280;34776;48.180;16.420;2023-02-01T14:37:46;99691.03;;;6.99;68.17
48964;BME280;34776;48.180;16.420;2023-02-01T14:40:34;99701.94;;;6.90;67.25
48964;BME280;34776;48.180;16.420;2023-02-01T14:43:01;99708.19;;;6.87;68.38
48964;BME280;34776;48.180;16.420;2023-02-01T14:47:54;99708.03;;;6.68;68.58
48964;BME280;34776;48.180;16.420;2023-02-01T15:01:31;99726.16;;;6.29;68.87
48964;BME280;34776;48.180;16.420;2023-02-01T15:04:10;99730.66;;;6.25;68.94
48964;BME280;34776;48.180;16.420;2023-02-01T15:06:57;99740.41;;;6.23;69.31
48964;BME280;34776;48.180;16.420;2023-02-01T15:09:32;99724.75;;;6.19;69.19
48964;BME280;34776;48.180;16.420;2023-02-01T15:14:37;99753.16;;;6.10;69.24
48964;BME280;34776;48.180;16.420;2023-02-01T15:17:17;99744.53;;;6.07;69.19
48964;BME280;34776;48.180;16.420;2023-02-01T15:22:19;99752.53;;;6.04;69.84
48964;BME280;34776;48.180;16.420;2023-02-01T15:24:52;99753.53;;;6.00;70.11
48964;BME280;34776;48.180;16.420;2023-02-01T15:27:19;99755.31;;;5.99;70.23
48964;BME280;34776;48.180;16.420;2023-02-01T15:29:44;99758.00;;;5.98;70.24
48964;BME280;34776;48.180;16.420;2023-02-01T15:32:31;99761.63;;;5.94;69.77